sensor_id;sensor_type;location;lat;lon;timestamp;P1;durP1;ratioP1;P2;durP2;ratioP2
10991;SDS011;5549;47.028;15.514;2022-08-23T00:00:11;2.83;;;2.67;;
10991;SDS011;5549;47.028;15.514;2022-08-23T00:02:41;3.00;;;2.80;;
10991;SDS011;5549;47.028;15.514;2022-08-23T00:05:11;2.40;;;2.20;;
10991;SDS011;5549;47.028;15.514;2022-08-23T00:07:41;2.73;;;2.53;;
10991;SDS011;5549;47.028;15.514;2022-08-23T00:10:13;2.87;;;2.67;;
10991;SDS011;5549;47.028;15.514;2022-08-23T00:12:43;2.50;;;2.40;;
10991;SDS011;5549;47.028;15.514;2022-08-23T00:15:17;2.70;;;2.50;;
10991;SDS011;5549;47.028;15.514;2022-08-23T00:17:46;2.60;;;2.50;;
10991;SDS011;5549;47.028;15.514;2022-08-23T00:20:15;2.00;;;1.90;;
10991;SDS011;5549;47.028;15.514;2022-08-23T00:22:47;3.03;;;2.83;;
10991;SDS011;5549;47.028;15.514;2022-08-23T00:25:15;2.60;;;2.50;;
10991;SDS011;5549;47.028;15.514;2022-08-23T00:27:43;2.67;;;2.57;;
10991;SDS011;5549;47.028;15.514;2022-08-23T00:30:11;2.77;;;2.57;;
10991;SDS011;5549;47.028;15.514;2022-08-23T00:32:44;2.67;;;2.57;;
10991;SDS011;5549;47.028;15.514;2022-08-23T00:35:13;2.60;;;2.50;;
10991;SDS011;5549;47.028;15.514;2022-08-23T00:37:44;2.60;;;2.50;;
10991;SDS011;5549;47.028;15.514;2022-08-23T00:40:15;2.90;;;2.70;;
10991;SDS011;5549;47.028;15.514;2022-08-23T00:42:46;2.97;;;2.77;;
10991;SDS011;5549;47.028;15.514;2022-08-23T00:45:50;2.70;;;2.43;;
10991;SDS011;5549;47.028;15.514;2022-08-23T00:48:44;2.30;;;2.20;;
10991;SDS011;5549;47.028;15.514;2022-08-23T00:51:15;2.60;;;2.47;;
10991;SDS011;5549;47.028;15.514;2022-08-23T00:53:58;2.30;;;2.20;;
10991;SDS011;5549;47.028;15.514;2022-08-23T00:56:31;2.13;;;2.03;;
10991;SDS011;5549;47.028;15.514;2022-08-23T00:59:01;3.07;;;2.87;;
10991;SDS011;5549;47.028;15.514;2022-08-23T01:01:31;2.70;;;2.57;;
10991;SDS011;5549;47.028;15.514;2022-08-23T01:04:01;2.50;;;2.30;;
10991;SDS011;5549;47.028;15.514;2022-08-23T01:06:32;2.80;;;2.60;;
10991;SDS011;5549;47.028;15.514;2022-08-23T01:09:10;2.80;;;2.60;;
10991;SDS011;5549;47.028;15.514;2022-08-23T01:11:41;2.60;;;2.40;;
10991;SDS011;5549;47.028;15.514;2022-08-23T01:14:23;2.90;;;2.70;;
10991;SDS011;5549;47.028;15.514;2022-08-23T01:16:58;2.40;;;2.30;;
10991;SDS011;5549;47.028;15.514;2022-08-23T01:19:35;2.47;;;2.37;;
10991;SDS011;5549;47.028;15.514;2022-08-23T01:22:07;2.20;;;2.10;;
10991;SDS011;5549;47.028;15.514;2022-08-23T01:24:45;2.07;;;1.97;;
10991;SDS011;5549;47.028;15.514;2022-08-23T01:27:15;2.13;;;2.03;;
10991;SDS011;5549;47.028;15.514;2022-08-23T01:29:43;1.73;;;1.73;;
10991;SDS011;5549;47.028;15.514;2022-08-23T01:32:11;2.40;;;1.90;;
10991;SDS011;5549;47.028;15.514;2022-08-23T01:34:42;2.33;;;2.13;;
10991;SDS011;5549;47.028;15.514;2022-08-23T01:37:10;2.03;;;1.93;;
10991;SDS011;5549;47.028;15.514;2022-08-23T01:39:41;2.43;;;2.20;;
10991;SDS011;5549;47.028;15.514;2022-08-23T01:42:11;2.47;;;2.27;;
10991;SDS011;5549;47.028;15.514;2022-08-23T01:44:39;2.27;;;2.17;;
10991;SDS011;5549;47.028;15.514;2022-08-23T01:47:07;2.10;;;2.00;;
10991;SDS011;5549;47.028;15.514;2022-08-23T01:49:35;2.40;;;2.30;;
10991;SDS011;5549;47.028;15.514;2022-08-23T01:52:03;2.63;;;2.43;;
10991;SDS011;5549;47.028;15.514;2022-08-23T01:54:31;2.60;;;2.50;;
10991;SDS011;5549;47.028;15.514;2022-08-23T01:57:00;2.63;;;2.43;;
10991;SDS011;5549;47.028;15.514;2022-08-23T01:59:32;2.60;;;2.40;;
10991;SDS011;5549;47.028;15.514;2022-08-23T02:02:00;2.70;;;2.50;;
10991;SDS011;5549;47.028;15.514;2022-08-23T02:04:28;3.10;;;2.90;;
10991;SDS011;5549;47.028;15.514;2022-08-23T02:06:56;3.20;;;3.00;;
10991;SDS011;5549;47.028;15.514;2022-08-23T02:09:25;3.00;;;2.80;;
10991;SDS011;5549;47.028;15.514;2022-08-23T02:11:53;2.47;;;2.37;;
10991;SDS011;5549;47.028;15.514;2022-08-23T02:14:21;2.97;;;2.77;;
10991;SDS011;5549;47.028;15.514;2022-08-23T02:16:51;2.80;;;2.60;;
10991;SDS011;5549;47.028;15.514;2022-08-23T02:19:24;2.97;;;2.77;;
10991;SDS011;5549;47.028;15.514;2022-08-23T02:21:52;3.60;;;3.40;;
10991;SDS011;5549;47.028;15.514;2022-08-23T02:24:22;2.50;;;2.40;;
10991;SDS011;5549;47.028;15.514;2022-08-23T02:26:54;2.67;;;2.50;;
10991;SDS011;5549;47.028;15.514;2022-08-23T02:29:25;2.83;;;2.63;;
10991;SDS011;5549;47.028;15.514;2022-08-23T02:31:58;2.50;;;2.40;;
10991;SDS011;5549;47.028;15.514;2022-08-23T02:34:27;3.07;;;2.60;;
10991;SDS011;5549;47.028;15.514;2022-08-23T02:36:56;2.47;;;2.37;;
10991;SDS011;5549;47.028;15.514;2022-08-23T02:39:27;2.57;;;2.47;;
10991;SDS011;5549;47.028;15.514;2022-08-23T02:41:55;3.13;;;2.40;;
10991;SDS011;5549;47.028;15.514;2022-08-23T02:44:25;3.17;;;2.10;;
10991;SDS011;5549;47.028;15.514;2022-08-23T02:46:53;2.37;;;2.17;;
10991;SDS011;5549;47.028;15.514;2022-08-23T02:49:22;2.80;;;2.50;;
10991;SDS011;5549;47.028;15.514;2022-08-23T02:51:51;2.33;;;2.23;;
10991;SDS011;5549;47.028;15.514;2022-08-23T02:54:21;2.63;;;2.43;;
10991;SDS011;5549;47.028;15.514;2022-08-23T02:56:49;2.20;;;2.10;;
10991;SDS011;5549;47.028;15.514;2022-08-23T02:59:17;2.63;;;2.53;;
10991;SDS011;5549;47.028;15.514;2022-08-23T03:01:45;2.20;;;2.10;;
10991;SDS011;5549;47.028;15.514;2022-08-23T03:04:15;1.80;;;1.80;;
10991;SDS011;5549;47.028;15.514;2022-08-23T03:06:44;2.17;;;2.07;;
10991;SDS011;5549;47.028;15.514;2022-08-23T03:09:11;1.90;;;1.90;;
10991;SDS011;5549;47.028;15.514;2022-08-23T03:11:42;1.70;;;1.60;;
10991;SDS011;5549;47.028;15.514;2022-08-23T03:14:14;2.13;;;2.03;;
10991;SDS011;5549;47.028;15.514;2022-08-23T03:16:41;2.47;;;2.27;;
10991;SDS011;5549;47.028;15.514;2022-08-23T03:19:10;2.73;;;1.70;;
10991;SDS011;5549;47.028;15.514;2022-08-23T03:21:39;2.00;;;1.80;;
10991;SDS011;5549;47.028;15.514;2022-08-23T03:24:10;2.00;;;1.87;;
10991;SDS011;5549;47.028;15.514;2022-08-23T03:26:41;1.60;;;1.60;;
10991;SDS011;5549;47.028;15.514;2022-08-23T03:29:10;2.03;;;1.93;;
10991;SDS011;5549;47.028;15.514;2022-08-23T03:31:38;1.80;;;1.70;;
10991;SDS011;5549;47.028;15.514;2022-08-23T03:34:05;1.80;;;1.70;;
10991;SDS011;5549;47.028;15.514;2022-08-23T03:36:33;1.87;;;1.60;;
10991;SDS011;5549;47.028;15.514;2022-08-23T03:39:04;2.87;;;1.60;;
10991;SDS011;5549;47.028;15.514;2022-08-23T03:41:36;1.67;;;1.57;;
10991;SDS011;5549;47.028;15.514;2022-08-23T03:44:05;1.50;;;1.50;;
10991;SDS011;5549;47.028;15.514;2022-08-23T03:46:34;1.57;;;1.43;;
10991;SDS011;5549;47.028;15.514;2022-08-23T03:49:02;1.97;;;1.57;;
10991;SDS011;5549;47.028;15.514;2022-08-23T03:51:30;1.70;;;1.60;;
10991;SDS011;5549;47.028;15.514;2022-08-23T03:54:00;1.70;;;1.60;;
10991;SDS011;5549;47.028;15.514;2022-08-23T03:56:32;1.93;;;1.83;;
10991;SDS011;5549;47.028;15.514;2022-08-23T03:59:09;1.70;;;1.70;;
10991;SDS011;5549;47.028;15.514;2022-08-23T04:01:37;1.97;;;1.87;;
10991;SDS011;5549;47.028;15.514;2022-08-23T04:04:04;1.63;;;1.60;;
10991;SDS011;5549;47.028;15.514;2022-08-23T04:06:37;2.90;;;1.90;;
10991;SDS011;5549;47.028;15.514;2022-08-23T04:09:05;1.60;;;1.50;;
10991;SDS011;5549;47.028;15.514;2022-08-23T04:11:33;2.00;;;1.90;;
10991;SDS011;5549;47.028;15.514;2022-08-23T04:14:05;1.90;;;1.80;;
10991;SDS011;5549;47.028;15.514;2022-08-23T04:16:34;2.00;;;1.90;;
10991;SDS011;5549;47.028;15.514;2022-08-23T04:19:03;1.80;;;1.70;;
10991;SDS011;5549;47.028;15.514;2022-08-23T04:21:34;2.00;;;1.90;;
10991;SDS011;5549;47.028;15.514;2022-08-23T04:24:03;2.70;;;1.63;;
10991;SDS011;5549;47.028;15.514;2022-08-23T04:26:33;1.70;;;1.60;;
10991;SDS011;5549;47.028;15.514;2022-08-23T04:29:06;1.50;;;1.40;;
10991;SDS011;5549;47.028;15.514;2022-08-23T04:31:34;2.50;;;1.97;;
10991;SDS011;5549;47.028;15.514;2022-08-23T04:34:01;1.53;;;1.43;;
10991;SDS011;5549;47.028;15.514;2022-08-23T04:36:33;1.27;;;1.27;;
10991;SDS011;5549;47.028;15.514;2022-08-23T04:39:04;1.30;;;1.30;;
10991;SDS011;5549;47.028;15.514;2022-08-23T04:41:33;1.37;;;1.30;;
10991;SDS011;5549;47.028;15.514;2022-08-23T04:44:22;1.60;;;1.50;;
10991;SDS011;5549;47.028;15.514;2022-08-23T04:46:53;1.50;;;1.40;;
10991;SDS011;5549;47.028;15.514;2022-08-23T04:49:20;1.30;;;1.23;;
10991;SDS011;5549;47.028;15.514;2022-08-23T04:51:50;1.40;;;1.40;;
10991;SDS011;5549;47.028;15.514;2022-08-23T04:54:18;1.03;;;0.97;;
10991;SDS011;5549;47.028;15.514;2022-08-23T04:56:49;1.20;;;1.20;;
10991;SDS011;5549;47.028;15.514;2022-08-23T04:59:17;0.90;;;0.90;;
10991;SDS011;5549;47.028;15.514;2022-08-23T05:01:46;1.00;;;1.00;;
10991;SDS011;5549;47.028;15.514;2022-08-23T05:04:16;2.70;;;1.30;;
10991;SDS011;5549;47.028;15.514;2022-08-23T05:06:47;4.57;;;1.10;;
10991;SDS011;5549;47.028;15.514;2022-08-23T05:09:16;0.80;;;0.80;;
10991;SDS011;5549;47.028;15.514;2022-08-23T05:11:44;0.80;;;0.80;;
10991;SDS011;5549;47.028;15.514;2022-08-23T05:14:11;0.70;;;0.70;;
10991;SDS011;5549;47.028;15.514;2022-08-23T05:16:42;1.80;;;0.80;;
10991;SDS011;5549;47.028;15.514;2022-08-23T05:19:13;0.77;;;0.77;;
10991;SDS011;5549;47.028;15.514;2022-08-23T05:21:40;2.10;;;0.80;;
10991;SDS011;5549;47.028;15.514;2022-08-23T05:24:08;0.80;;;0.80;;
10991;SDS011;5549;47.028;15.514;2022-08-23T05:26:36;0.83;;;0.83;;
10991;SDS011;5549;47.028;15.514;2022-08-23T05:29:06;0.83;;;0.83;;
10991;SDS011;5549;47.028;15.514;2022-08-23T05:31:34;0.63;;;0.63;;
10991;SDS011;5549;47.028;15.514;2022-08-23T05:34:04;0.70;;;0.70;;
10991;SDS011;5549;47.028;15.514;2022-08-23T05:36:33;3.30;;;1.10;;
10991;SDS011;5549;47.028;15.514;2022-08-23T05:39:02;0.57;;;0.57;;
10991;SDS011;5549;47.028;15.514;2022-08-23T05:41:32;0.50;;;0.50;;
10991;SDS011;5549;47.028;15.514;2022-08-23T05:44:00;0.60;;;0.60;;
10991;SDS011;5549;47.028;15.514;2022-08-23T05:46:27;0.50;;;0.50;;
10991;SDS011;5549;47.028;15.514;2022-08-23T05:48:57;3.20;;;0.60;;
10991;SDS011;5549;47.028;15.514;2022-08-23T05:51:28;0.50;;;0.50;;
10991;SDS011;5549;47.028;15.514;2022-08-23T05:54:03;0.60;;;0.60;;
10991;SDS011;5549;47.028;15.514;2022-08-23T05:56:34;1.87;;;0.57;;
10991;SDS011;5549;47.028;15.514;2022-08-23T05:59:06;0.80;;;0.80;;
10991;SDS011;5549;47.028;15.514;2022-08-23T06:01:37;0.70;;;0.70;;
10991;SDS011;5549;47.028;15.514;2022-08-23T06:04:06;0.80;;;0.80;;
10991;SDS011;5549;47.028;15.514;2022-08-23T06:06:38;0.70;;;0.70;;
10991;SDS011;5549;47.028;15.514;2022-08-23T06:09:09;1.30;;;0.80;;
10991;SDS011;5549;47.028;15.514;2022-08-23T06:11:41;0.70;;;0.70;;
10991;SDS011;5549;47.028;15.514;2022-08-23T06:14:10;0.50;;;0.50;;
10991;SDS011;5549;47.028;15.514;2022-08-23T06:16:40;0.60;;;0.60;;
10991;SDS011;5549;47.028;15.514;2022-08-23T06:19:13;0.60;;;0.60;;
10991;SDS011;5549;47.028;15.514;2022-08-23T06:21:42;0.60;;;0.60;;
10991;SDS011;5549;47.028;15.514;2022-08-23T06:24:14;0.80;;;0.60;;
10991;SDS011;5549;47.028;15.514;2022-08-23T06:26:43;1.70;;;0.73;;
10991;SDS011;5549;47.028;15.514;2022-08-23T06:29:12;0.57;;;0.57;;
10991;SDS011;5549;47.028;15.514;2022-08-23T06:31:44;0.60;;;0.60;;
10991;SDS011;5549;47.028;15.514;2022-08-23T06:34:17;0.40;;;0.40;;
10991;SDS011;5549;47.028;15.514;2022-08-23T06:36:48;0.50;;;0.50;;
10991;SDS011;5549;47.028;15.514;2022-08-23T06:39:25;0.73;;;0.50;;
10991;SDS011;5549;47.028;15.514;2022-08-23T06:41:56;1.70;;;0.60;;
10991;SDS011;5549;47.028;15.514;2022-08-23T06:44:29;0.40;;;0.40;;
10991;SDS011;5549;47.028;15.514;2022-08-23T06:46:57;0.43;;;0.43;;
10991;SDS011;5549;47.028;15.514;2022-08-23T06:49:25;0.77;;;0.40;;
10991;SDS011;5549;47.028;15.514;2022-08-23T06:51:55;0.30;;;0.30;;
10991;SDS011;5549;47.028;15.514;2022-08-23T06:54:28;0.50;;;0.50;;
10991;SDS011;5549;47.028;15.514;2022-08-23T06:57:00;0.40;;;0.40;;
10991;SDS011;5549;47.028;15.514;2022-08-23T06:59:29;0.40;;;0.33;;
10991;SDS011;5549;47.028;15.514;2022-08-23T07:01:57;0.27;;;0.27;;
10991;SDS011;5549;47.028;15.514;2022-08-23T07:04:29;1.60;;;0.60;;
10991;SDS011;5549;47.028;15.514;2022-08-23T07:07:00;0.60;;;0.60;;
10991;SDS011;5549;47.028;15.514;2022-08-23T07:09:30;0.60;;;0.60;;
10991;SDS011;5549;47.028;15.514;2022-08-23T07:11:58;0.63;;;0.47;;
10991;SDS011;5549;47.028;15.514;2022-08-23T07:14:29;0.40;;;0.40;;
10991;SDS011;5549;47.028;15.514;2022-08-23T07:16:59;0.50;;;0.50;;
10991;SDS011;5549;47.028;15.514;2022-08-23T07:19:32;0.40;;;0.40;;
10991;SDS011;5549;47.028;15.514;2022-08-23T07:22:01;2.27;;;0.50;;
10991;SDS011;5549;47.028;15.514;2022-08-23T07:24:33;0.70;;;0.70;;
10991;SDS011;5549;47.028;15.514;2022-08-23T07:27:01;0.50;;;0.50;;
10991;SDS011;5549;47.028;15.514;2022-08-23T07:29:34;0.53;;;0.53;;
10991;SDS011;5549;47.028;15.514;2022-08-23T07:32:06;0.67;;;0.50;;
10991;SDS011;5549;47.028;15.514;2022-08-23T07:34:35;0.70;;;0.70;;
10991;SDS011;5549;47.028;15.514;2022-08-23T07:37:05;0.50;;;0.50;;
10991;SDS011;5549;47.028;15.514;2022-08-23T07:39:34;1.23;;;0.70;;
10991;SDS011;5549;47.028;15.514;2022-08-23T07:42:04;0.40;;;0.40;;
10991;SDS011;5549;47.028;15.514;2022-08-23T07:44:35;0.40;;;0.40;;
10991;SDS011;5549;47.028;15.514;2022-08-23T07:47:05;0.50;;;0.50;;
10991;SDS011;5549;47.028;15.514;2022-08-23T07:49:33;0.60;;;0.50;;
10991;SDS011;5549;47.028;15.514;2022-08-23T07:52:03;0.57;;;0.57;;
10991;SDS011;5549;47.028;15.514;2022-08-23T07:54:31;0.33;;;0.33;;
10991;SDS011;5549;47.028;15.514;2022-08-23T07:57:00;1.13;;;0.43;;
10991;SDS011;5549;47.028;15.514;2022-08-23T07:59:28;0.53;;;0.37;;
10991;SDS011;5549;47.028;15.514;2022-08-23T08:01:59;0.63;;;0.63;;
10991;SDS011;5549;47.028;15.514;2022-08-23T08:04:29;0.40;;;0.40;;
10991;SDS011;5549;47.028;15.514;2022-08-23T08:06:57;0.60;;;0.60;;
10991;SDS011;5549;47.028;15.514;2022-08-23T08:09:25;0.50;;;0.50;;
10991;SDS011;5549;47.028;15.514;2022-08-23T08:11:55;0.40;;;0.40;;
10991;SDS011;5549;47.028;15.514;2022-08-23T08:14:24;1.37;;;0.40;;
10991;SDS011;5549;47.028;15.514;2022-08-23T08:16:51;0.43;;;0.43;;
10991;SDS011;5549;47.028;15.514;2022-08-23T08:19:22;0.40;;;0.40;;
10991;SDS011;5549;47.028;15.514;2022-08-23T08:21:50;0.87;;;0.50;;
10991;SDS011;5549;47.028;15.514;2022-08-23T08:24:20;0.70;;;0.70;;
10991;SDS011;5549;47.028;15.514;2022-08-23T08:26:48;0.93;;;0.50;;
10991;SDS011;5549;47.028;15.514;2022-08-23T08:29:16;0.47;;;0.47;;
10991;SDS011;5549;47.028;15.514;2022-08-23T08:31:45;0.50;;;0.50;;
10991;SDS011;5549;47.028;15.514;2022-08-23T08:34:15;0.27;;;0.27;;
10991;SDS011;5549;47.028;15.514;2022-08-23T08:36:44;0.57;;;0.57;;
10991;SDS011;5549;47.028;15.514;2022-08-23T08:39:19;0.40;;;0.40;;
10991;SDS011;5549;47.028;15.514;2022-08-23T08:41:53;0.40;;;0.40;;
10991;SDS011;5549;47.028;15.514;2022-08-23T08:44:37;0.50;;;0.50;;
10991;SDS011;5549;47.028;15.514;2022-08-23T08:47:14;0.47;;;0.47;;
10991;SDS011;5549;47.028;15.514;2022-08-23T08:49:51;0.30;;;0.30;;
10991;SDS011;5549;47.028;15.514;2022-08-23T08:52:27;0.50;;;0.50;;
10991;SDS011;5549;47.028;15.514;2022-08-23T08:55:02;0.40;;;0.40;;
10991;SDS011;5549;47.028;15.514;2022-08-23T08:57:41;0.10;;;0.10;;
10991;SDS011;5549;47.028;15.514;2022-08-23T09:00:13;0.27;;;0.27;;
10991;SDS011;5549;47.028;15.514;2022-08-23T09:02:46;0.20;;;0.20;;
10991;SDS011;5549;47.028;15.514;2022-08-23T09:05:15;0.13;;;0.13;;
10991;SDS011;5549;47.028;15.514;2022-08-23T09:07:49;0.30;;;0.30;;
10991;SDS011;5549;47.028;15.514;2022-08-23T09:10:38;0.10;;;0.10;;
10991;SDS011;5549;47.028;15.514;2022-08-23T09:16:15;0.23;;;0.23;;
10991;SDS011;5549;47.028;15.514;2022-08-23T09:18:56;0.40;;;0.40;;
10991;SDS011;5549;47.028;15.514;2022-08-23T09:21:39;0.20;;;0.20;;
10991;SDS011;5549;47.028;15.514;2022-08-23T09:24:13;0.30;;;0.30;;
10991;SDS011;5549;47.028;15.514;2022-08-23T09:26:41;1.70;;;0.30;;
10991;SDS011;5549;47.028;15.514;2022-08-23T09:29:15;0.27;;;0.27;;
10991;SDS011;5549;47.028;15.514;2022-08-23T09:31:53;0.27;;;0.27;;
10991;SDS011;5549;47.028;15.514;2022-08-23T09:34:38;0.40;;;0.40;;
10991;SDS011;5549;47.028;15.514;2022-08-23T09:37:10;0.40;;;0.40;;
10991;SDS011;5549;47.028;15.514;2022-08-23T09:39:46;0.30;;;0.30;;
10991;SDS011;5549;47.028;15.514;2022-08-23T09:42:28;0.40;;;0.40;;
10991;SDS011;5549;47.028;15.514;2022-08-23T09:45:00;0.50;;;0.50;;
10991;SDS011;5549;47.028;15.514;2022-08-23T09:47:31;0.30;;;0.30;;
10991;SDS011;5549;47.028;15.514;2022-08-23T09:50:14;0.30;;;0.30;;
10991;SDS011;5549;47.028;15.514;2022-08-23T09:52:53;0.30;;;0.30;;
10991;SDS011;5549;47.028;15.514;2022-08-23T09:55:27;0.20;;;0.20;;
10991;SDS011;5549;47.028;15.514;2022-08-23T09:58:02;0.23;;;0.23;;
10991;SDS011;5549;47.028;15.514;2022-08-23T10:00:35;0.40;;;0.40;;
10991;SDS011;5549;47.028;15.514;2022-08-23T10:03:21;0.30;;;0.30;;
10991;SDS011;5549;47.028;15.514;2022-08-23T10:05:54;0.10;;;0.10;;
10991;SDS011;5549;47.028;15.514;2022-08-23T10:08:28;0.30;;;0.30;;
10991;SDS011;5549;47.028;15.514;2022-08-23T10:11:01;0.57;;;0.50;;
10991;SDS011;5549;47.028;15.514;2022-08-23T10:13:40;0.30;;;0.30;;
10991;SDS011;5549;47.028;15.514;2022-08-23T10:16:14;0.30;;;0.30;;
10991;SDS011;5549;47.028;15.514;2022-08-23T10:18:53;0.20;;;0.20;;
10991;SDS011;5549;47.028;15.514;2022-08-23T10:21:30;0.33;;;0.33;;
10991;SDS011;5549;47.028;15.514;2022-08-23T10:24:15;0.30;;;0.30;;
10991;SDS011;5549;47.028;15.514;2022-08-23T10:26:58;0.33;;;0.30;;
10991;SDS011;5549;47.028;15.514;2022-08-23T10:30:18;0.40;;;0.40;;
10991;SDS011;5549;47.028;15.514;2022-08-23T10:32:51;0.40;;;0.40;;
10991;SDS011;5549;47.028;15.514;2022-08-23T10:35:36;0.30;;;0.30;;
10991;SDS011;5549;47.028;15.514;2022-08-23T10:38:21;0.23;;;0.23;;
10991;SDS011;5549;47.028;15.514;2022-08-23T10:41:13;0.30;;;0.30;;
10991;SDS011;5549;47.028;15.514;2022-08-23T10:44:00;0.40;;;0.40;;
10991;SDS011;5549;47.028;15.514;2022-08-23T10:46:44;0.40;;;0.40;;
10991;SDS011;5549;47.028;15.514;2022-08-23T10:49:21;0.40;;;0.40;;
10991;SDS011;5549;47.028;15.514;2022-08-23T10:51:53;0.50;;;0.40;;
10991;SDS011;5549;47.028;15.514;2022-08-23T10:54:29;2.10;;;0.50;;
10991;SDS011;5549;47.028;15.514;2022-08-23T10:57:10;0.30;;;0.30;;
10991;SDS011;5549;47.028;15.514;2022-08-23T10:59:45;0.30;;;0.30;;
10991;SDS011;5549;47.028;15.514;2022-08-23T11:02:17;0.30;;;0.30;;
10991;SDS011;5549;47.028;15.514;2022-08-23T11:05:01;0.30;;;0.30;;
10991;SDS011;5549;47.028;15.514;2022-08-23T11:07:34;0.40;;;0.40;;
10991;SDS011;5549;47.028;15.514;2022-08-23T11:10:08;0.17;;;0.17;;
10991;SDS011;5549;47.028;15.514;2022-08-23T11:12:51;0.20;;;0.20;;
10991;SDS011;5549;47.028;15.514;2022-08-23T11:15:25;0.30;;;0.30;;
10991;SDS011;5549;47.028;15.514;2022-08-23T11:18:06;0.30;;;0.30;;
10991;SDS011;5549;47.028;15.514;2022-08-23T11:23:40;1.03;;;0.20;;
10991;SDS011;5549;47.028;15.514;2022-08-23T11:29:31;0.20;;;0.20;;
10991;SDS011;5549;47.028;15.514;2022-08-23T11:32:20;0.30;;;0.30;;
10991;SDS011;5549;47.028;15.514;2022-08-23T11:35:02;0.10;;;0.10;;
10991;SDS011;5549;47.028;15.514;2022-08-23T11:38:01;0.30;;;0.30;;
10991;SDS011;5549;47.028;15.514;2022-08-23T11:40:41;0.30;;;0.30;;
10991;SDS011;5549;47.028;15.514;2022-08-23T11:43:38;0.33;;;0.33;;
10991;SDS011;5549;47.028;15.514;2022-08-23T11:46:15;0.40;;;0.40;;
10991;SDS011;5549;47.028;15.514;2022-08-23T11:52:23;0.30;;;0.30;;
10991;SDS011;5549;47.028;15.514;2022-08-23T11:55:34;0.40;;;0.40;;
10991;SDS011;5549;47.028;15.514;2022-08-23T11:58:55;0.27;;;0.27;;
10991;SDS011;5549;47.028;15.514;2022-08-23T12:01:39;0.77;;;0.40;;
10991;SDS011;5549;47.028;15.514;2022-08-23T12:04:25;0.20;;;0.20;;
10991;SDS011;5549;47.028;15.514;2022-08-23T12:06:59;0.20;;;0.20;;
10991;SDS011;5549;47.028;15.514;2022-08-23T12:09:54;0.97;;;0.30;;
10991;SDS011;5549;47.028;15.514;2022-08-23T12:12:28;0.40;;;0.40;;
10991;SDS011;5549;47.028;15.514;2022-08-23T12:15:00;0.50;;;0.47;;
10991;SDS011;5549;47.028;15.514;2022-08-23T12:20:49;0.50;;;0.50;;
10991;SDS011;5549;47.028;15.514;2022-08-23T12:23:23;0.60;;;0.60;;
10991;SDS011;5549;47.028;15.514;2022-08-23T12:25:59;0.50;;;0.50;;
10991;SDS011;5549;47.028;15.514;2022-08-23T12:28:37;0.53;;;0.53;;
10991;SDS011;5549;47.028;15.514;2022-08-23T12:31:14;0.60;;;0.60;;
10991;SDS011;5549;47.028;15.514;2022-08-23T12:33:54;0.50;;;0.40;;
10991;SDS011;5549;47.028;15.514;2022-08-23T12:36:42;0.70;;;0.70;;
10991;SDS011;5549;47.028;15.514;2022-08-23T12:39:22;0.60;;;0.60;;
10991;SDS011;5549;47.028;15.514;2022-08-23T12:41:59;0.70;;;0.70;;
10991;SDS011;5549;47.028;15.514;2022-08-23T12:44:38;0.80;;;0.80;;
10991;SDS011;5549;47.028;15.514;2022-08-23T12:47:11;0.70;;;0.70;;
10991;SDS011;5549;47.028;15.514;2022-08-23T12:49:51;0.70;;;0.70;;
10991;SDS011;5549;47.028;15.514;2022-08-23T12:52:24;0.83;;;0.50;;
10991;SDS011;5549;47.028;15.514;2022-08-23T12:54:55;0.90;;;0.90;;
10991;SDS011;5549;47.028;15.514;2022-08-23T12:57:26;0.50;;;0.50;;
10991;SDS011;5549;47.028;15.514;2022-08-23T13:00:07;0.63;;;0.63;;
10991;SDS011;5549;47.028;15.514;2022-08-23T13:02:48;0.90;;;0.90;;
10991;SDS011;5549;47.028;15.514;2022-08-23T13:05:29;0.80;;;0.80;;
10991;SDS011;5549;47.028;15.514;2022-08-23T13:08:07;0.70;;;0.70;;
10991;SDS011;5549;47.028;15.514;2022-08-23T13:10:40;0.63;;;0.63;;
10991;SDS011;5549;47.028;15.514;2022-08-23T13:13:13;0.80;;;0.80;;
10991;SDS011;5549;47.028;15.514;2022-08-23T13:15:50;0.70;;;0.70;;
10991;SDS011;5549;47.028;15.514;2022-08-23T13:18:24;0.70;;;0.70;;
10991;SDS011;5549;47.028;15.514;2022-08-23T13:21:15;0.50;;;0.50;;
10991;SDS011;5549;47.028;15.514;2022-08-23T13:23:47;0.80;;;0.80;;
10991;SDS011;5549;47.028;15.514;2022-08-23T13:26:23;0.90;;;0.90;;
10991;SDS011;5549;47.028;15.514;2022-08-23T13:29:04;0.90;;;0.90;;
10991;SDS011;5549;47.028;15.514;2022-08-23T13:31:53;0.70;;;0.70;;
10991;SDS011;5549;47.028;15.514;2022-08-23T13:34:31;1.50;;;0.70;;
10991;SDS011;5549;47.028;15.514;2022-08-23T13:37:07;0.80;;;0.80;;
10991;SDS011;5549;47.028;15.514;2022-08-23T13:39:46;0.67;;;0.67;;
10991;SDS011;5549;47.028;15.514;2022-08-23T13:42:30;0.60;;;0.60;;
10991;SDS011;5549;47.028;15.514;2022-08-23T13:45:07;0.63;;;0.63;;
10991;SDS011;5549;47.028;15.514;2022-08-23T13:47:46;0.73;;;0.73;;
10991;SDS011;5549;47.028;15.514;2022-08-23T13:50:21;0.57;;;0.57;;
10991;SDS011;5549;47.028;15.514;2022-08-23T13:52:53;0.60;;;0.60;;
10991;SDS011;5549;47.028;15.514;2022-08-23T13:55:23;0.50;;;0.50;;
10991;SDS011;5549;47.028;15.514;2022-08-23T13:57:55;0.70;;;0.70;;
10991;SDS011;5549;47.028;15.514;2022-08-23T14:00:26;0.70;;;0.70;;
10991;SDS011;5549;47.028;15.514;2022-08-23T14:02:56;0.70;;;0.70;;
10991;SDS011;5549;47.028;15.514;2022-08-23T14:05:24;0.70;;;0.70;;
10991;SDS011;5549;47.028;15.514;2022-08-23T14:07:54;0.70;;;0.70;;
10991;SDS011;5549;47.028;15.514;2022-08-23T14:10:21;0.60;;;0.60;;
10991;SDS011;5549;47.028;15.514;2022-08-23T14:12:52;0.60;;;0.60;;
10991;SDS011;5549;47.028;15.514;2022-08-23T14:15:20;0.60;;;0.60;;
10991;SDS011;5549;47.028;15.514;2022-08-23T14:17:51;0.73;;;0.73;;
10991;SDS011;5549;47.028;15.514;2022-08-23T14:20:21;0.43;;;0.43;;
10991;SDS011;5549;47.028;15.514;2022-08-23T14:22:50;0.70;;;0.70;;
10991;SDS011;5549;47.028;15.514;2022-08-23T14:25:18;1.07;;;0.60;;
10991;SDS011;5549;47.028;15.514;2022-08-23T14:27:48;0.60;;;0.60;;
10991;SDS011;5549;47.028;15.514;2022-08-23T14:30:21;0.97;;;0.80;;
10991;SDS011;5549;47.028;15.514;2022-08-23T14:32:54;1.27;;;0.60;;
10991;SDS011;5549;47.028;15.514;2022-08-23T14:35:25;0.50;;;0.50;;
10991;SDS011;5549;47.028;15.514;2022-08-23T14:37:53;0.40;;;0.40;;
10991;SDS011;5549;47.028;15.514;2022-08-23T14:40:21;0.60;;;0.60;;
10991;SDS011;5549;47.028;15.514;2022-08-23T14:42:49;2.23;;;0.60;;
10991;SDS011;5549;47.028;15.514;2022-08-23T14:45:19;0.40;;;0.40;;
10991;SDS011;5549;47.028;15.514;2022-08-23T14:47:50;0.93;;;0.50;;
10991;SDS011;5549;47.028;15.514;2022-08-23T14:50:17;0.47;;;0.47;;
10991;SDS011;5549;47.028;15.514;2022-08-23T14:52:47;0.40;;;0.40;;
10991;SDS011;5549;47.028;15.514;2022-08-23T14:55:16;0.50;;;0.50;;
10991;SDS011;5549;47.028;15.514;2022-08-23T14:57:44;0.60;;;0.60;;
10991;SDS011;5549;47.028;15.514;2022-08-23T15:00:16;0.50;;;0.50;;
10991;SDS011;5549;47.028;15.514;2022-08-23T15:02:44;0.60;;;0.60;;
10991;SDS011;5549;47.028;15.514;2022-08-23T15:05:14;0.60;;;0.60;;
10991;SDS011;5549;47.028;15.514;2022-08-23T15:07:44;0.60;;;0.60;;
10991;SDS011;5549;47.028;15.514;2022-08-23T15:10:14;0.50;;;0.50;;
10991;SDS011;5549;47.028;15.514;2022-08-23T15:12:42;0.67;;;0.67;;
10991;SDS011;5549;47.028;15.514;2022-08-23T15:15:10;0.50;;;0.50;;
10991;SDS011;5549;47.028;15.514;2022-08-23T15:17:43;0.63;;;0.53;;
10991;SDS011;5549;47.028;15.514;2022-08-23T15:20:19;0.50;;;0.50;;
10991;SDS011;5549;47.028;15.514;2022-08-23T15:22:56;0.40;;;0.40;;
10991;SDS011;5549;47.028;15.514;2022-08-23T15:25:27;0.50;;;0.50;;
10991;SDS011;5549;47.028;15.514;2022-08-23T15:27:57;0.60;;;0.60;;
10991;SDS011;5549;47.028;15.514;2022-08-23T15:30:29;0.60;;;0.60;;
10991;SDS011;5549;47.028;15.514;2022-08-23T15:32:59;0.57;;;0.57;;
10991;SDS011;5549;47.028;15.514;2022-08-23T15:35:27;0.60;;;0.60;;
10991;SDS011;5549;47.028;15.514;2022-08-23T15:38:00;0.60;;;0.60;;